createdAt,value
2023-11-08T00:01:54.789Z,100221.56
2023-11-08T00:04:57.493Z,100232.72
2023-11-08T00:08:00.295Z,100227.16
2023-11-08T00:11:03.113Z,100232.72
2023-11-08T00:14:12.207Z,100241.09
2023-11-08T00:17:15.605Z,100254.25
2023-11-08T00:20:18.451Z,100261.31
2023-11-08T00:23:21.096Z,100265.25
2023-11-08T00:26:23.879Z,100269.38
2023-11-08T00:29:26.655Z,100276.12
2023-11-08T00:32:29.548Z,100273.81
2023-11-08T00:35:32.316Z,100275.63
2023-11-08T00:38:35.101Z,100281.69
2023-11-08T00:41:37.963Z,100281.69
2023-11-08T00:44:40.681Z,100281.69
2023-11-08T00:47:45.162Z,100279.88
2023-11-08T00:50:48.335Z,100278.06
2023-11-08T00:53:51.289Z,100283.66
2023-11-08T00:56:57.371Z,100288.09
2023-11-08T01:00:00.206Z,100282.19
2023-11-08T01:03:03.113Z,100279.72
2023-11-08T01:06:06.185Z,100272.97
2023-11-08T01:09:10.081Z,100276.41
2023-11-08T01:12:12.832Z,100272.28
2023-11-08T01:15:15.873Z,100276.72
2023-11-08T01:18:18.734Z,100265.38
2023-11-08T01:21:22.354Z,100270.13
2023-11-08T01:24:25.602Z,100266.53
2023-11-08T01:27:28.492Z,100270.13
2023-11-08T01:30:31.311Z,100267.66
2023-11-08T01:33:34.367Z,100273.75
2023-11-08T01:36:37.242Z,100272.91
2023-11-08T01:39:39.968Z,100275.38
2023-11-08T01:42:42.887Z,100275.56
2023-11-08T01:45:45.705Z,100267.31
2023-11-08T01:48:49.341Z,100276.38
2023-11-08T01:51:53.348Z,100279.16
2023-11-08T01:54:56.165Z,100279.00
2023-11-08T01:58:00.403Z,100272.25
2023-11-08T02:01:06.186Z,100276.19
2023-11-08T02:04:09.060Z,100276.19
2023-11-08T02:07:12.699Z,100265.84
2023-11-08T02:10:15.794Z,100257.28
2023-11-08T02:13:18.531Z,100255.66
2023-11-08T02:16:21.233Z,100252.19
2023-11-08T02:19:24.809Z,100267.81
2023-11-08T02:22:29.108Z,100270.75
2023-11-08T02:25:32.039Z,100280.13
2023-11-08T02:28:37.585Z,100284.41
2023-11-08T02:31:40.514Z,100291.31
2023-11-08T02:34:43.192Z,100292.13
2023-11-08T02:37:47.691Z,100299.34
2023-11-08T02:40:50.584Z,100301.16
2023-11-08T02:43:53.419Z,100305.59
2023-11-08T02:46:56.312Z,100301.16
2023-11-08T02:50:00.306Z,100308.37
2023-11-08T02:53:03.842Z,100313.78
2023-11-08T02:56:07.025Z,100313.12
2023-11-08T02:59:10.194Z,100322.81
2023-11-08T03:02:13.195Z,100321.31
2023-11-08T03:05:25.279Z,100330.03
2023-11-08T03:08:28.469Z,100328.53
2023-11-08T03:11:31.144Z,100337.25
2023-11-08T03:14:33.885Z,100335.09
2023-11-08T03:17:37.690Z,100352.34
2023-11-08T03:20:40.466Z,100353.16
2023-11-08T03:23:43.275Z,100360.38
2023-11-08T03:26:47.892Z,100362.19
2023-11-08T03:29:50.562Z,100375.31
2023-11-08T03:32:55.699Z,100366.13
2023-11-08T03:35:58.441Z,100374.50
2023-11-08T03:39:01.446Z,100376.00
2023-11-08T03:42:07.187Z,100382.06
2023-11-08T03:45:10.867Z,100354.59
2023-11-08T03:48:13.794Z,100388.16
2023-11-08T03:51:16.697Z,100393.56
2023-11-08T03:54:20.217Z,100403.75
2023-11-08T03:57:23.440Z,100404.91
2023-11-08T04:00:28.019Z,100408.34
2023-11-08T04:03:33.806Z,100414.75
2023-11-08T04:06:37.991Z,100419.31
2023-11-08T04:09:45.179Z,100411.44
2023-11-08T04:12:47.898Z,100409.63
2023-11-08T04:15:50.693Z,100416.03
2023-11-08T04:18:53.688Z,100423.09
2023-11-08T04:21:56.596Z,100431.78
2023-11-08T04:24:59.337Z,100430.16
2023-11-08T04:28:02.131Z,100423.25
2023-11-08T04:31:04.968Z,100428.50
2023-11-08T04:34:07.791Z,100437.37
2023-11-08T04:37:13.264Z,100436.53
2023-11-08T04:40:19.492Z,100438.34
2023-11-08T04:43:22.579Z,100422.50
2023-11-08T04:46:25.394Z,100439.31
2023-11-08T04:49:29.332Z,100444.56
2023-11-08T04:52:32.381Z,100449.81
2023-11-08T04:55:35.379Z,100452.59
2023-11-08T04:58:38.200Z,100454.25
2023-11-08T05:01:43.074Z,100454.41
2023-11-08T05:04:49.629Z,100455.22
2023-11-08T05:07:52.576Z,100451.78
2023-11-08T05:10:55.596Z,100458.69
2023-11-08T05:13:58.411Z,100455.38
2023-11-08T05:17:05.502Z,100458.31
2023-11-08T05:20:12.502Z,100464.25
2023-11-08T05:23:15.305Z,100460.25
2023-11-08T05:26:18.221Z,100463.03
2023-11-08T05:29:21.250Z,100473.69
2023-11-08T05:32:25.891Z,100487.81
2023-11-08T05:35:28.600Z,100486.44
2023-11-08T05:38:31.427Z,100490.88
2023-11-08T05:41:34.253Z,100492.69
2023-11-08T05:44:37.130Z,100509.13
2023-11-08T05:47:39.958Z,100503.19
2023-11-08T05:50:44.788Z,100510.91
2023-11-08T05:53:48.528Z,100517.81
2023-11-08T05:56:57.297Z,100524.56
2023-11-08T06:00:08.909Z,100533.44
2023-11-08T06:03:12.231Z,100536.06
2023-11-08T06:06:14.991Z,100541.16
2023-11-08T06:09:20.450Z,100549.19
2023-11-08T06:12:23.288Z,100548.87
2023-11-08T06:15:27.703Z,100548.72
2023-11-08T06:18:32.611Z,100552.19
2023-11-08T06:21:35.868Z,100557.28
2023-11-08T06:24:42.022Z,100562.69
2023-11-08T06:27:44.991Z,100558.72
2023-11-08T06:30:49.008Z,100574.84
2023-11-08T06:33:51.981Z,100576.81
2023-11-08T06:36:54.820Z,100578.59
2023-11-08T06:39:58.487Z,100574.62
2023-11-08T06:43:01.630Z,100585.66
2023-11-08T06:46:04.639Z,100578.09
2023-11-08T06:49:13.066Z,100594.81
2023-11-08T06:52:17.043Z,100587.75
2023-11-08T06:55:27.880Z,100598.91
2023-11-08T06:58:38.610Z,100601.28
2023-11-08T07:01:42.891Z,100594.53
2023-11-08T07:04:45.807Z,100606.75
2023-11-08T07:07:49.182Z,100600.22
2023-11-08T07:10:53.211Z,100622.00
2023-11-08T07:13:56.467Z,100622.72
2023-11-08T07:17:02.111Z,100629.84
2023-11-08T07:20:09.072Z,100626.78
2023-11-08T07:23:12.458Z,100632.41
2023-11-08T07:26:17.319Z,100639.53
2023-11-08T07:29:21.220Z,100638.13
2023-11-08T07:32:27.059Z,100633.22
2023-11-08T07:35:30.571Z,100631.97
2023-11-08T07:38:34.164Z,100630.16
2023-11-08T07:41:37.022Z,100630.00
2023-11-08T07:44:39.980Z,100634.13
2023-11-08T07:47:42.908Z,100637.25
2023-11-08T07:50:45.934Z,100638.75
2023-11-08T07:53:48.844Z,100633.69
2023-11-08T07:56:51.638Z,100638.31
2023-11-08T07:59:54.590Z,100641.31
2023-11-08T08:02:58.668Z,100641.84
2023-11-08T08:06:01.551Z,100652.56
2023-11-08T08:09:04.703Z,100640.06
2023-11-08T08:12:08.914Z,100656.69
2023-11-08T08:15:11.761Z,100658.72
2023-11-08T08:18:15.597Z,100663.84
2023-11-08T08:21:19.392Z,100665.19
2023-11-08T08:24:22.627Z,100667.00
2023-11-08T08:27:25.529Z,100666.09
2023-11-08T08:30:31.419Z,100660.31
2023-11-08T08:33:35.521Z,100663.31
2023-11-08T08:36:38.415Z,100665.94
2023-11-08T08:39:41.255Z,100650.31
2023-11-08T08:42:44.756Z,100663.81
2023-11-08T08:45:48.925Z,100667.00
2023-11-08T08:48:52.785Z,100667.00
2023-11-08T08:51:59.256Z,100657.59
2023-11-08T08:55:02.146Z,100659.56
2023-11-08T08:58:06.032Z,100657.28
2023-11-08T09:01:12.397Z,100657.97
2023-11-08T09:04:15.242Z,100664.88
2023-11-08T09:07:21.362Z,100656.44
2023-11-08T09:10:25.020Z,100646.19
2023-11-08T09:13:27.826Z,100646.50
2023-11-08T09:16:36.213Z,100650.28
2023-11-08T09:19:42.081Z,100647.28
2023-11-08T09:22:45.615Z,100646.09
2023-11-08T09:25:49.840Z,100655.97
2023-11-08T09:28:52.587Z,100642.59
2023-11-08T09:31:57.482Z,100650.81
2023-11-08T09:35:00.394Z,100652.09
2023-11-08T09:38:03.227Z,100643.97
2023-11-08T09:41:06.625Z,100644.59
2023-11-08T09:44:09.999Z,100644.06
2023-11-08T09:47:13.242Z,100640.56
2023-11-08T09:50:16.613Z,100633.75
2023-11-08T09:53:19.870Z,100637.50
2023-11-08T09:56:23.288Z,100642.81
2023-11-08T09:59:28.368Z,100632.66
2023-11-08T10:02:31.411Z,100657.13
2023-11-08T10:05:39.064Z,100648.44
2023-11-08T10:08:44.039Z,100637.25
2023-11-08T10:11:49.666Z,100639.03
2023-11-08T10:15:00.925Z,100641.97
2023-11-08T10:19:32.411Z,100644.22
2023-11-08T10:21:32.992Z,100645.25
2023-11-08T10:24:56.714Z,100646.41
2023-11-08T10:28:07.333Z,100646.72
2023-11-08T10:31:34.353Z,100634.13
2023-11-08T10:34:37.149Z,100643.94
2023-11-08T10:37:40.425Z,100634.88
2023-11-08T10:40:46.468Z,100638.19
2023-11-08T10:43:49.946Z,100635.59
2023-11-08T10:47:00.907Z,100619.03
2023-11-08T10:50:07.323Z,100612.88
2023-11-08T10:53:10.170Z,100619.94
2023-11-08T10:56:13.014Z,100621.31
2023-11-08T10:59:19.085Z,100620.28
2023-11-08T11:02:30.144Z,100612.06
2023-11-08T11:05:35.843Z,100609.09
2023-11-08T11:08:44.676Z,100606.00
2023-11-08T11:11:54.064Z,100617.16
2023-11-08T11:14:57.842Z,100607.25
2023-11-08T11:18:02.096Z,100604.31
2023-11-08T11:21:40.873Z,100609.00
2023-11-08T11:24:46.670Z,100609.81
2023-11-08T11:27:49.648Z,100611.06
2023-11-08T11:30:52.431Z,100607.44
2023-11-08T11:33:55.318Z,100602.31
2023-11-08T11:37:19.973Z,100612.53
2023-11-08T11:40:23.533Z,100600.06
2023-11-08T11:43:32.602Z,100612.81
2023-11-08T11:46:35.944Z,100605.19
2023-11-08T11:49:40.063Z,100605.72
2023-11-08T11:52:44.226Z,100599.97
2023-11-08T11:55:47.138Z,100595.41
2023-11-08T11:58:51.725Z,100602.13
2023-11-08T12:01:55.101Z,100599.06
2023-11-08T12:04:59.804Z,100599.44
2023-11-08T12:08:04.663Z,100585.50
2023-11-08T12:11:17.953Z,100596.50
2023-11-08T12:14:24.020Z,100600.38
2023-11-08T12:17:28.151Z,100602.56
2023-11-08T12:20:34.685Z,100599.09
2023-11-08T12:23:38.626Z,100604.75
2023-11-08T12:26:50.083Z,100600.94
2023-11-08T12:29:52.833Z,100602.59
2023-11-08T12:32:58.198Z,100595.47
2023-11-08T12:36:03.402Z,100611.78
2023-11-08T12:39:17.711Z,100612.91
2023-11-08T12:42:20.752Z,100596.25
2023-11-08T12:46:34.114Z,100599.59
2023-11-08T12:48:58.190Z,100607.03
2023-11-08T12:52:05.588Z,100592.03
2023-11-08T12:55:08.960Z,100602.00
2023-11-08T12:58:29.294Z,100611.16
2023-11-08T13:01:32.062Z,100596.37
2023-11-08T13:04:35.111Z,100593.16
2023-11-08T13:07:40.335Z,100603.19
2023-11-08T13:10:43.174Z,100594.62
2023-11-08T13:13:46.434Z,100600.81
2023-11-08T13:16:49.141Z,100600.44
2023-11-08T13:19:52.017Z,100595.06
2023-11-08T13:22:55.076Z,100605.94
2023-11-08T13:25:58.145Z,100600.34
2023-11-08T13:29:00.892Z,100601.72
2023-11-08T13:32:04.866Z,100609.22
2023-11-08T13:35:13.140Z,100614.25
2023-11-08T13:38:18.491Z,100611.31
2023-11-08T13:41:21.570Z,100598.75
2023-11-08T13:44:24.288Z,100610.28
2023-11-08T13:47:27.560Z,100614.31
2023-11-08T13:50:30.483Z,100614.53
2023-11-08T13:53:37.445Z,100622.41
2023-11-08T13:56:40.286Z,100619.22
2023-11-08T13:59:52.043Z,100616.37
2023-11-08T14:02:59.189Z,100617.78
2023-11-08T14:06:02.089Z,100609.72
2023-11-08T14:09:05.840Z,100616.19
2023-11-08T14:12:10.605Z,100611.56
2023-11-08T14:15:13.890Z,100614.91
2023-11-08T14:18:16.822Z,100615.94
2023-11-08T14:21:19.521Z,100608.41
2023-11-08T14:24:22.364Z,100622.56
2023-11-08T14:27:25.053Z,100626.03
2023-11-08T14:30:27.912Z,100627.94
2023-11-08T14:33:30.834Z,100622.12
2023-11-08T14:36:55.412Z,100608.38
2023-11-08T14:39:56.465Z,100619.94
2023-11-08T14:43:01.661Z,100617.47
2023-11-08T14:46:04.887Z,100625.34
2023-11-08T14:49:08.038Z,100627.25
2023-11-08T14:52:11.063Z,100623.16
2023-11-08T14:55:13.957Z,100623.75
2023-11-08T14:58:16.870Z,100624.78
2023-11-08T15:01:19.967Z,100630.06
2023-11-08T15:04:23.818Z,100620.09
2023-11-08T15:09:41.541Z,100611.53
2023-11-08T15:10:50.053Z,100617.13
2023-11-08T15:13:53.299Z,100613.25
2023-11-08T15:16:56.069Z,100612.88
2023-11-08T15:19:58.858Z,100610.47
2023-11-08T15:23:01.740Z,100617.81
2023-11-08T15:26:05.164Z,100617.22
2023-11-08T15:29:08.227Z,100620.81
2023-11-08T15:32:13.731Z,100621.81
2023-11-08T15:35:16.750Z,100618.31
2023-11-08T15:38:20.238Z,100618.09
2023-11-08T15:41:23.849Z,100618.00
2023-11-08T15:44:28.782Z,100623.94
2023-11-08T15:47:31.903Z,100620.22
2023-11-08T15:50:38.465Z,100623.03
2023-11-08T15:53:41.278Z,100625.47
2023-11-08T15:56:44.641Z,100623.59
2023-11-08T15:59:47.864Z,100634.41
2023-11-08T16:02:51.501Z,100626.63
2023-11-08T16:05:58.201Z,100626.16
2023-11-08T16:09:01.556Z,100630.94
2023-11-08T16:12:05.055Z,100629.91
2023-11-08T16:15:08.787Z,100626.94
2023-11-08T16:18:11.990Z,100631.00
2023-11-08T16:21:14.753Z,100629.25
2023-11-08T16:24:18.298Z,100627.59
2023-11-08T16:27:21.440Z,100633.28
2023-11-08T16:30:59.376Z,100626.03
2023-11-08T16:33:47.580Z,100631.53
2023-11-08T16:36:50.473Z,100629.47
2023-11-08T16:39:53.827Z,100638.59
2023-11-08T16:42:58.175Z,100630.97
2023-11-08T16:46:01.029Z,100637.88
2023-11-08T16:49:03.965Z,100634.38
2023-11-08T16:52:07.099Z,100632.84
2023-11-08T16:55:12.236Z,100629.41
2023-11-08T16:58:19.255Z,100622.22
2023-11-08T17:01:26.458Z,100633.47
2023-11-08T17:04:29.823Z,100632.22
2023-11-08T17:07:32.765Z,100626.81
2023-11-08T17:10:35.665Z,100623.34
2023-11-08T17:13:38.520Z,100631.59
2023-11-08T17:16:41.586Z,100624.25
2023-11-08T17:19:45.000Z,100622.12
2023-11-08T17:22:47.972Z,100623.91
2023-11-08T17:25:50.985Z,100622.66
2023-11-08T17:28:54.581Z,100628.78
2023-11-08T17:32:00.256Z,100628.88
2023-11-08T17:35:05.312Z,100649.06
2023-11-08T17:38:08.349Z,100650.00
2023-11-08T17:41:11.607Z,100636.94
2023-11-08T17:44:15.206Z,100647.22
2023-11-08T17:47:17.882Z,100641.97
2023-11-08T17:50:20.686Z,100652.09
2023-11-08T17:53:23.534Z,100647.13
2023-11-08T17:56:27.192Z,100656.56
2023-11-08T17:59:29.948Z,100655.03
2023-11-08T18:02:35.137Z,100663.69
2023-11-08T18:05:37.961Z,100660.69
2023-11-08T18:08:44.735Z,100658.22
2023-11-08T18:11:53.854Z,100657.84
2023-11-08T18:14:56.616Z,100660.41
2023-11-08T18:17:59.455Z,100654.59
2023-11-08T18:21:02.745Z,100651.97
2023-11-08T18:24:06.130Z,100647.22
2023-11-08T18:27:09.668Z,100651.31
2023-11-08T18:30:13.681Z,100654.22
2023-11-08T18:33:21.941Z,100638.28
2023-11-08T18:36:28.249Z,100658.28
2023-11-08T18:39:34.881Z,100660.25
2023-11-08T18:42:40.436Z,100660.50
2023-11-08T18:45:43.598Z,100659.56
2023-11-08T18:48:46.447Z,100654.31
2023-11-08T18:51:49.441Z,100655.28
2023-11-08T18:54:52.723Z,100663.25
2023-11-08T18:57:56.037Z,100666.97
2023-11-08T19:00:59.934Z,100662.94
2023-11-08T19:04:05.545Z,100670.63
2023-11-08T19:07:08.404Z,100666.44
2023-11-08T19:10:12.253Z,100678.47
2023-11-08T19:13:15.202Z,100680.59
2023-11-08T19:16:18.246Z,100680.16
2023-11-08T19:19:21.232Z,100679.03
2023-11-08T19:22:24.091Z,100688.09
2023-11-08T19:25:27.706Z,100679.53
2023-11-08T19:28:33.601Z,100676.47
2023-11-08T19:31:37.064Z,100679.22
2023-11-08T19:34:40.639Z,100689.38
2023-11-08T19:37:43.879Z,100686.44
2023-11-08T19:40:46.977Z,100694.75
2023-11-08T19:43:50.354Z,100699.78
2023-11-08T19:46:53.523Z,100698.50
2023-11-08T19:49:57.702Z,100692.75
2023-11-08T19:53:01.044Z,100696.56
2023-11-08T19:56:07.279Z,100691.97
2023-11-08T19:59:11.435Z,100689.94
2023-11-08T20:02:18.414Z,100694.81
2023-11-08T20:05:22.017Z,100694.97
2023-11-08T20:08:28.168Z,100697.94
2023-11-08T20:11:32.832Z,100695.00
2023-11-08T20:14:35.852Z,100693.25
2023-11-08T20:17:44.378Z,100687.75
2023-11-08T20:20:51.849Z,100691.44
2023-11-08T20:23:54.907Z,100683.41
2023-11-08T20:26:58.071Z,100675.34
2023-11-08T20:30:03.466Z,100676.78
2023-11-08T20:33:10.118Z,100681.37
2023-11-08T20:36:13.195Z,100680.87
2023-11-08T20:39:17.676Z,100687.41
2023-11-08T20:42:21.356Z,100685.84
2023-11-08T20:45:27.268Z,100685.63
2023-11-08T20:48:30.592Z,100685.13
2023-11-08T20:51:33.737Z,100689.03
2023-11-08T20:54:43.248Z,100687.59
2023-11-08T20:57:46.593Z,100677.87
2023-11-08T21:00:49.623Z,100683.31
2023-11-08T21:03:52.723Z,100680.19
2023-11-08T21:06:55.795Z,100681.97
2023-11-08T21:09:58.559Z,100688.25
2023-11-08T21:13:01.621Z,100689.53
2023-11-08T21:16:06.600Z,100691.53
2023-11-08T21:19:10.745Z,100686.66
2023-11-08T21:22:13.811Z,100684.50
2023-11-08T21:25:16.628Z,100674.22
2023-11-08T21:28:19.485Z,100674.56
2023-11-08T21:31:23.390Z,100675.94
2023-11-08T21:34:26.366Z,100674.50
2023-11-08T21:37:29.077Z,100678.16
2023-11-08T21:40:31.954Z,100677.75
2023-11-08T21:43:37.679Z,100678.44
2023-11-08T21:46:43.389Z,100675.22
2023-11-08T21:49:46.305Z,100674.00
2023-11-08T21:52:49.174Z,100676.09
2023-11-08T21:55:51.822Z,100673.63
2023-11-08T21:58:54.940Z,100679.88
2023-11-08T22:01:57.620Z,100671.69
2023-11-08T22:05:01.195Z,100672.31
2023-11-08T22:08:03.961Z,100659.00
2023-11-08T22:11:06.880Z,100662.56
2023-11-08T22:14:09.679Z,100654.03
2023-11-08T22:17:13.155Z,100649.25
2023-11-08T22:20:16.394Z,100641.41
2023-11-08T22:23:20.708Z,100647.22
2023-11-08T22:26:23.663Z,100647.09
2023-11-08T22:29:26.645Z,100635.97
2023-11-08T22:32:29.526Z,100640.13
2023-11-08T22:35:32.285Z,100642.62
2023-11-08T22:38:35.647Z,100643.66
2023-11-08T22:41:39.385Z,100636.69
2023-11-08T22:44:42.101Z,100634.31
2023-11-08T22:47:44.942Z,100641.19
2023-11-08T22:50:47.761Z,100621.75
2023-11-08T22:53:51.526Z,100627.06
2023-11-08T22:56:54.297Z,100626.00
2023-11-08T22:59:57.031Z,100636.31
2023-11-08T23:03:03.444Z,100620.81
2023-11-08T23:06:07.225Z,100628.00
2023-11-08T23:09:09.929Z,100615.84
2023-11-08T23:12:13.079Z,100628.00
2023-11-08T23:15:15.901Z,100615.19
2023-11-08T23:18:19.083Z,100613.25
2023-11-08T23:21:22.602Z,100614.16
2023-11-08T23:24:25.377Z,100616.56
2023-11-08T23:27:31.126Z,100609.25
2023-11-08T23:30:33.832Z,100610.97
2023-11-08T23:33:37.052Z,100594.41
2023-11-08T23:36:39.919Z,100593.91
2023-11-08T23:39:42.691Z,100586.19
2023-11-08T23:42:45.794Z,100587.88
2023-11-08T23:45:49.048Z,100590.31
2023-11-08T23:48:52.336Z,100587.19
2023-11-08T23:51:55.130Z,100582.44
2023-11-08T23:54:58.323Z,100583.59
2023-11-08T23:58:01.108Z,100578.53
